createdAt,value
2019-01-26T00:02:09.585Z,35.92
2019-01-26T00:04:37.046Z,36.53
2019-01-26T00:07:04.105Z,39.35
2019-01-26T00:09:32.302Z,33.40
2019-01-26T00:12:00.363Z,35.45
2019-01-26T00:14:28.818Z,37.42
2019-01-26T00:16:56.181Z,33.85
2019-01-26T00:19:23.629Z,45.95
2019-01-26T00:21:51.290Z,40.92
2019-01-26T00:24:19.053Z,36.55
2019-01-26T00:26:46.411Z,39.03
2019-01-26T00:29:13.761Z,33.05
2019-01-26T00:31:42.670Z,36.03
2019-01-26T00:34:09.755Z,34.05
2019-01-26T00:36:37.931Z,33.63
2019-01-26T00:39:07.882Z,34.80
2019-01-26T00:41:35.416Z,32.95
2019-01-26T00:44:02.483Z,33.10
2019-01-26T00:46:29.594Z,33.42
2019-01-26T00:48:56.646Z,33.75
2019-01-26T00:51:24.047Z,33.67
2019-01-26T00:53:51.125Z,35.60
2019-01-26T00:56:18.183Z,34.05
2019-01-26T00:58:45.250Z,32.98
2019-01-26T01:01:12.851Z,33.80
2019-01-26T01:03:40.025Z,34.78
2019-01-26T01:06:07.175Z,34.48
2019-01-26T01:08:34.711Z,33.35
2019-01-26T01:11:02.064Z,34.27
2019-01-26T01:13:29.418Z,37.67
2019-01-26T01:15:56.788Z,34.20
2019-01-26T01:18:24.438Z,34.63
2019-01-26T01:20:52.101Z,34.50
2019-01-26T01:23:19.473Z,34.25
2019-01-26T01:25:46.806Z,33.05
2019-01-26T01:28:15.285Z,37.48
2019-01-26T01:30:42.637Z,35.40
2019-01-26T01:33:11.429Z,32.73
2019-01-26T01:35:38.501Z,32.90
2019-01-26T01:38:06.139Z,35.25
2019-01-26T01:40:33.485Z,37.00
2019-01-26T01:43:00.857Z,35.20
2019-01-26T01:45:28.310Z,37.38
2019-01-26T01:47:55.658Z,35.90
2019-01-26T01:50:23.014Z,38.83
2019-01-26T01:52:50.489Z,33.80
2019-01-26T01:55:19.670Z,34.03
2019-01-26T01:57:47.032Z,39.35
2019-01-26T02:00:19.755Z,36.98
2019-01-26T02:02:47.156Z,35.58
2019-01-26T02:05:14.594Z,35.78
2019-01-26T02:07:41.965Z,36.38
2019-01-26T02:10:11.048Z,36.95
2019-01-26T02:12:39.183Z,37.95
2019-01-26T02:15:07.403Z,37.55
2019-01-26T02:17:34.575Z,32.90
2019-01-26T02:20:03.768Z,43.35
2019-01-26T02:22:31.522Z,34.35
2019-01-26T02:24:59.082Z,37.55
2019-01-26T02:27:27.865Z,36.25
2019-01-26T02:29:55.971Z,35.92
2019-01-26T02:32:23.046Z,35.03
2019-01-26T02:34:50.750Z,40.38
2019-01-26T02:37:20.260Z,36.05
2019-01-26T02:39:47.925Z,38.08
2019-01-26T02:42:15.374Z,37.40
2019-01-26T02:44:42.725Z,38.00
2019-01-26T02:47:10.088Z,38.67
2019-01-26T02:49:39.585Z,38.00
2019-01-26T02:52:06.944Z,39.45
2019-01-26T02:54:36.144Z,38.55
2019-01-26T02:57:03.704Z,37.30
2019-01-26T02:59:31.893Z,38.08
2019-01-26T03:01:59.273Z,36.40
2019-01-26T03:04:26.687Z,35.17
2019-01-26T03:06:54.039Z,38.08
2019-01-26T03:09:21.498Z,35.08
2019-01-26T03:11:48.953Z,33.95
2019-01-26T03:14:16.306Z,35.90
2019-01-26T03:16:45.609Z,34.63
2019-01-26T03:19:12.687Z,36.85
2019-01-26T03:21:42.161Z,34.38
2019-01-26T03:24:12.484Z,32.40
2019-01-26T03:26:41.273Z,45.80
2019-01-26T03:29:10.155Z,38.83
2019-01-26T03:31:39.672Z,36.42
2019-01-26T03:34:07.031Z,36.58
2019-01-26T03:36:35.217Z,33.53
2019-01-26T03:39:02.325Z,32.78
2019-01-26T03:41:31.291Z,33.83
2019-01-26T03:43:59.000Z,34.43
2019-01-26T03:46:26.366Z,34.65
2019-01-26T03:48:53.830Z,33.53
2019-01-26T03:51:23.261Z,31.80
2019-01-26T03:53:50.348Z,32.08
2019-01-26T03:56:17.432Z,32.05
2019-01-26T03:58:45.595Z,34.03
2019-01-26T04:01:12.656Z,31.12
2019-01-26T04:03:39.737Z,31.42
2019-01-26T04:06:06.781Z,30.92
2019-01-26T04:08:34.352Z,31.85
2019-01-26T04:11:02.498Z,30.32
2019-01-26T04:13:30.227Z,28.87
2019-01-26T04:15:58.706Z,32.33
2019-01-26T04:18:26.022Z,32.33
2019-01-26T04:20:53.729Z,30.35
2019-01-26T04:23:21.162Z,31.33
2019-01-26T04:25:50.033Z,31.15
2019-01-26T04:28:17.526Z,30.17
2019-01-26T04:30:45.393Z,30.52
2019-01-26T04:33:13.053Z,30.70
2019-01-26T04:35:40.421Z,29.52
2019-01-26T04:38:07.965Z,31.85
2019-01-26T04:40:35.729Z,30.00
2019-01-26T04:43:03.192Z,29.63
2019-01-26T04:45:30.581Z,28.62
2019-01-26T04:47:57.897Z,30.72
2019-01-26T04:50:25.486Z,28.27
2019-01-26T04:52:53.230Z,27.52
2019-01-26T04:55:20.781Z,28.75
2019-01-26T04:57:48.134Z,25.10
2019-01-26T05:00:18.609Z,27.07
2019-01-26T05:02:46.029Z,25.57
2019-01-26T05:05:13.368Z,26.00
2019-01-26T05:07:42.255Z,26.10
2019-01-26T05:10:10.518Z,27.95
2019-01-26T05:12:37.892Z,23.52
2019-01-26T05:15:06.422Z,23.07
2019-01-26T05:17:39.190Z,22.80
2019-01-26T05:20:04.652Z,22.85
2019-01-26T05:22:31.746Z,21.62
2019-01-26T05:24:59.156Z,21.23
2019-01-26T05:27:26.229Z,21.15
2019-01-26T05:29:53.312Z,23.57
2019-01-26T05:32:20.378Z,18.75
2019-01-26T05:34:47.447Z,21.73
2019-01-26T05:37:15.329Z,21.12
2019-01-26T05:39:42.785Z,20.20
2019-01-26T05:42:10.547Z,19.27
2019-01-26T05:44:38.106Z,18.70
2019-01-26T05:47:05.769Z,20.72
2019-01-26T05:49:32.838Z,19.52
2019-01-26T05:52:00.084Z,20.05
2019-01-26T05:54:27.530Z,19.12
2019-01-26T05:56:55.711Z,20.90
2019-01-26T05:59:22.850Z,19.73
2019-01-26T06:01:50.252Z,18.90
2019-01-26T06:04:17.661Z,19.75
2019-01-26T06:06:45.440Z,16.48
2019-01-26T06:09:12.491Z,18.30
2019-01-26T06:11:40.254Z,18.17
2019-01-26T06:14:07.591Z,19.67
2019-01-26T06:16:34.787Z,21.02
2019-01-26T06:19:02.398Z,17.12
2019-01-26T06:21:30.267Z,18.27
2019-01-26T06:23:57.322Z,16.17
2019-01-26T06:26:24.669Z,16.07
2019-01-26T06:28:51.752Z,15.23
2019-01-26T06:31:18.821Z,15.50
2019-01-26T06:33:46.250Z,14.95
2019-01-26T06:36:14.850Z,14.50
2019-01-26T06:38:42.157Z,14.45
2019-01-26T06:41:10.025Z,15.90
2019-01-26T06:43:37.451Z,12.55
2019-01-26T06:46:04.833Z,10.65
2019-01-26T06:48:31.974Z,11.97
2019-01-26T06:50:59.339Z,11.73
2019-01-26T06:53:27.207Z,10.50
2019-01-26T06:55:54.268Z,9.28
2019-01-26T06:58:22.013Z,12.85
2019-01-26T07:00:49.370Z,9.65
2019-01-26T07:03:17.046Z,11.05
2019-01-26T07:05:55.655Z,9.78
2019-01-26T07:08:23.718Z,11.00
2019-01-26T07:10:51.075Z,9.48
2019-01-26T07:13:18.430Z,9.15
2019-01-26T07:15:45.630Z,9.73
2019-01-26T07:18:13.447Z,7.97
2019-01-26T07:20:40.803Z,7.62
2019-01-26T07:23:08.288Z,7.22
2019-01-26T07:25:35.877Z,8.05
2019-01-26T07:28:03.245Z,7.20
2019-01-26T07:30:30.541Z,7.20
2019-01-26T07:32:57.608Z,7.30
2019-01-26T07:35:24.929Z,5.72
2019-01-26T07:37:51.985Z,7.65
2019-01-26T07:40:19.402Z,8.70
2019-01-26T07:42:46.457Z,6.27
2019-01-26T07:45:13.745Z,7.03
2019-01-26T07:47:41.077Z,6.58
2019-01-26T07:50:10.816Z,8.10
2019-01-26T07:52:38.554Z,6.33
2019-01-26T07:55:06.889Z,6.90
2019-01-26T07:57:34.390Z,6.40
2019-01-26T08:00:01.851Z,6.50
2019-01-26T08:02:29.417Z,6.00
2019-01-26T08:04:57.374Z,7.23
2019-01-26T08:07:24.534Z,6.40
2019-01-26T08:09:51.614Z,5.47
2019-01-26T08:12:19.162Z,5.70
2019-01-26T08:14:47.530Z,5.60
2019-01-26T08:17:14.894Z,6.03
2019-01-26T08:19:42.730Z,5.40
2019-01-26T08:22:10.499Z,6.83
2019-01-26T08:24:38.258Z,5.17
2019-01-26T08:27:05.718Z,4.57
2019-01-26T08:29:33.583Z,4.90
2019-01-26T08:32:00.939Z,4.70
2019-01-26T08:34:29.319Z,5.37
2019-01-26T08:36:56.669Z,5.23
2019-01-26T08:39:24.026Z,6.30
2019-01-26T08:41:51.089Z,6.45
2019-01-26T08:44:19.070Z,5.75
2019-01-26T08:46:46.130Z,5.28
2019-01-26T08:49:13.582Z,5.40
2019-01-26T08:51:40.651Z,6.17
2019-01-26T08:54:07.733Z,6.10
2019-01-26T08:56:34.797Z,5.30
2019-01-26T08:59:01.878Z,5.95
2019-01-26T09:01:29.030Z,5.90
2019-01-26T09:04:04.085Z,5.97
2019-01-26T09:06:38.316Z,4.90
2019-01-26T09:09:10.761Z,7.10
2019-01-26T09:11:38.268Z,5.58
2019-01-26T09:14:05.555Z,5.87
2019-01-26T09:16:32.679Z,5.55
2019-01-26T09:19:00.106Z,6.62
2019-01-26T09:21:27.792Z,5.10
2019-01-26T09:23:55.863Z,5.50
2019-01-26T09:26:22.973Z,7.28
2019-01-26T09:28:50.673Z,7.00
2019-01-26T09:31:17.755Z,6.83
2019-01-26T09:33:45.279Z,6.63
2019-01-26T09:36:13.360Z,7.30
2019-01-26T09:38:41.010Z,5.53
2019-01-26T09:41:08.674Z,5.90
2019-01-26T09:43:35.756Z,6.50
2019-01-26T09:46:03.586Z,6.17
2019-01-26T09:48:30.710Z,5.60
2019-01-26T09:50:58.721Z,5.70
2019-01-26T09:53:26.058Z,5.70
2019-01-26T09:55:53.824Z,5.50
2019-01-26T09:58:21.192Z,5.43
2019-01-26T10:00:48.299Z,6.63
2019-01-26T10:03:15.382Z,5.97
2019-01-26T10:05:42.570Z,6.13
2019-01-26T10:08:10.294Z,6.23
2019-01-26T10:10:37.736Z,7.23
2019-01-26T10:13:04.920Z,5.67
2019-01-26T10:15:33.828Z,7.80
2019-01-26T10:18:01.347Z,6.07
2019-01-26T10:20:30.747Z,7.17
2019-01-26T10:22:58.202Z,6.10
2019-01-26T10:25:27.472Z,7.80
2019-01-26T10:27:55.266Z,6.10
2019-01-26T10:30:30.818Z,6.00
2019-01-26T10:32:57.878Z,6.93
2019-01-26T10:35:31.502Z,5.77
2019-01-26T10:37:59.944Z,7.20
2019-01-26T10:40:45.117Z,7.40
2019-01-26T10:43:14.415Z,7.12
2019-01-26T10:45:41.598Z,6.10
2019-01-26T10:48:09.327Z,7.00
2019-01-26T10:50:36.785Z,7.00
2019-01-26T10:53:04.239Z,6.63
2019-01-26T10:55:31.420Z,5.10
2019-01-26T10:57:58.846Z,5.43
2019-01-26T11:00:26.406Z,5.33
2019-01-26T11:02:53.470Z,5.80
2019-01-26T11:05:20.968Z,4.57
2019-01-26T11:07:48.369Z,5.27
2019-01-26T11:10:15.562Z,5.00
2019-01-26T11:12:42.766Z,5.10
2019-01-26T11:15:10.435Z,5.23
2019-01-26T11:17:37.628Z,4.90
2019-01-26T11:20:06.366Z,4.40
2019-01-26T11:22:33.722Z,5.70
2019-01-26T11:25:01.188Z,5.13
2019-01-26T11:27:28.258Z,5.62
2019-01-26T11:29:55.683Z,5.60
2019-01-26T11:32:23.546Z,4.83
2019-01-26T11:34:50.721Z,4.93
2019-01-26T11:37:18.167Z,4.90
2019-01-26T11:39:50.252Z,5.10
2019-01-26T11:42:17.346Z,5.50
2019-01-26T11:45:05.829Z,6.40
2019-01-26T11:47:33.010Z,6.27
2019-01-26T11:50:03.290Z,5.60
2019-01-26T11:52:31.060Z,5.23
2019-01-26T11:55:07.422Z,7.15
2019-01-26T11:57:37.314Z,5.00
2019-01-26T12:00:26.849Z,6.00
2019-01-26T12:03:00.477Z,6.20
2019-01-26T12:05:38.473Z,5.90
2019-01-26T12:08:06.622Z,6.93
2019-01-26T12:10:34.782Z,7.10
2019-01-26T12:13:01.877Z,7.00
2019-01-26T12:15:28.940Z,6.00
2019-01-26T12:17:56.373Z,7.50
2019-01-26T12:20:23.873Z,6.13
2019-01-26T12:22:52.281Z,5.53
2019-01-26T12:25:19.438Z,5.83
2019-01-26T12:27:46.525Z,7.67
2019-01-26T12:30:13.712Z,6.00
2019-01-26T12:32:40.781Z,5.90
2019-01-26T12:35:10.110Z,6.40
2019-01-26T12:37:37.662Z,5.07
2019-01-26T12:40:05.263Z,5.00
2019-01-26T12:42:32.479Z,5.70
2019-01-26T12:45:01.643Z,5.53
2019-01-26T12:47:29.118Z,5.00
2019-01-26T12:49:56.579Z,6.00
2019-01-26T12:52:24.707Z,5.83
2019-01-26T12:54:51.826Z,5.00
2019-01-26T12:57:19.257Z,4.90
2019-01-26T12:59:46.751Z,5.40
2019-01-26T13:02:13.837Z,4.40
2019-01-26T13:04:41.736Z,4.20
2019-01-26T13:07:08.832Z,5.60
2019-01-26T13:09:37.040Z,4.60
2019-01-26T13:12:04.234Z,5.00
2019-01-26T13:14:32.325Z,4.70
2019-01-26T13:16:59.678Z,4.70
2019-01-26T13:19:27.276Z,3.90
2019-01-26T13:21:55.617Z,4.70
2019-01-26T13:24:22.714Z,4.10
2019-01-26T13:26:50.887Z,3.67
2019-01-26T13:29:18.073Z,4.47
2019-01-26T13:31:46.600Z,4.23
2019-01-26T13:34:14.785Z,4.40
2019-01-26T13:36:42.198Z,4.10
2019-01-26T13:39:09.675Z,4.37
2019-01-26T13:41:37.371Z,4.30
2019-01-26T13:44:04.459Z,3.97
2019-01-26T13:46:32.336Z,3.90
2019-01-26T13:48:59.434Z,5.00
2019-01-26T13:51:26.540Z,4.23
2019-01-26T13:53:53.986Z,4.37
2019-01-26T13:56:21.546Z,4.13
2019-01-26T13:58:50.162Z,5.30
2019-01-26T14:01:17.483Z,4.87
2019-01-26T14:03:44.949Z,8.40
2019-01-26T14:06:12.806Z,6.40
2019-01-26T14:08:40.262Z,7.07
2019-01-26T14:11:07.341Z,5.90
2019-01-26T14:13:34.879Z,5.80
2019-01-26T14:16:02.286Z,5.33
2019-01-26T14:18:29.687Z,6.87
2019-01-26T14:20:56.886Z,6.50
2019-01-26T14:23:24.327Z,6.93
2019-01-26T14:25:51.422Z,6.43
2019-01-26T14:28:20.026Z,8.10
2019-01-26T14:30:55.401Z,7.60
2019-01-26T14:33:22.804Z,7.77
2019-01-26T14:35:50.312Z,8.53
2019-01-26T14:38:17.505Z,8.60
2019-01-26T14:40:45.297Z,10.30
2019-01-26T14:43:12.652Z,9.87
2019-01-26T14:45:40.722Z,8.70
2019-01-26T14:48:08.754Z,9.77
2019-01-26T14:50:39.321Z,8.70
2019-01-26T14:53:06.667Z,8.73
2019-01-26T14:55:35.573Z,8.30
2019-01-26T14:58:03.053Z,10.23
2019-01-26T15:00:31.629Z,10.45
2019-01-26T15:02:58.970Z,12.58
2019-01-26T15:05:26.949Z,10.30
2019-01-26T15:07:54.692Z,12.80
2019-01-26T15:10:22.149Z,12.97
2019-01-26T15:12:49.364Z,11.30
2019-01-26T15:15:17.564Z,10.60
2019-01-26T15:17:44.974Z,11.40
2019-01-26T15:20:17.811Z,11.90
2019-01-26T15:22:45.680Z,9.30
2019-01-26T15:25:13.545Z,9.65
2019-01-26T15:27:40.965Z,12.25
2019-01-26T15:30:15.058Z,12.67
2019-01-26T15:32:42.152Z,10.77
2019-01-26T15:35:09.663Z,12.10
2019-01-26T15:37:37.858Z,12.43
2019-01-26T15:40:05.686Z,12.00
2019-01-26T15:42:32.970Z,11.25
2019-01-26T15:45:00.311Z,11.45
2019-01-26T15:47:27.410Z,12.43
2019-01-26T15:49:54.498Z,13.80
2019-01-26T15:52:21.635Z,13.45
2019-01-26T15:54:49.873Z,12.87
2019-01-26T15:57:18.022Z,13.57
2019-01-26T15:59:45.137Z,14.67
2019-01-26T16:02:12.430Z,15.73
2019-01-26T16:04:39.544Z,22.40
2019-01-26T16:07:06.662Z,22.37
2019-01-26T16:09:33.847Z,19.10
2019-01-26T16:12:00.930Z,18.63
2019-01-26T16:14:28.162Z,19.03
2019-01-26T16:16:55.249Z,22.00
2019-01-26T16:19:23.317Z,20.65
2019-01-26T16:21:50.767Z,20.10
2019-01-26T16:24:17.823Z,19.60
2019-01-26T16:26:44.870Z,22.13
2019-01-26T16:29:12.068Z,20.10
2019-01-26T16:31:39.143Z,21.07
2019-01-26T16:34:06.224Z,22.70
2019-01-26T16:36:34.430Z,18.30
2019-01-26T16:39:01.956Z,18.00
2019-01-26T16:41:31.256Z,16.10
2019-01-26T16:43:59.019Z,14.17
2019-01-26T16:46:26.436Z,14.90
2019-01-26T16:48:53.831Z,12.67
2019-01-26T16:51:21.043Z,11.73
2019-01-26T16:53:48.439Z,11.20
2019-01-26T16:56:16.609Z,13.20
2019-01-26T16:58:45.512Z,12.65
2019-01-26T17:01:12.590Z,11.73
2019-01-26T17:03:39.663Z,12.00
2019-01-26T17:06:07.131Z,11.70
2019-01-26T17:08:34.243Z,11.30
2019-01-26T17:11:01.332Z,11.30
2019-01-26T17:13:28.442Z,10.83
2019-01-26T17:15:55.509Z,11.67
2019-01-26T17:18:24.599Z,10.93
2019-01-26T17:20:52.559Z,9.93
2019-01-26T17:23:20.379Z,11.07
2019-01-26T17:25:47.919Z,9.90
2019-01-26T17:28:15.237Z,11.10
2019-01-26T17:30:43.060Z,10.17
2019-01-26T17:33:10.515Z,10.70
2019-01-26T17:35:37.626Z,9.20
2019-01-26T17:38:05.122Z,9.40
2019-01-26T17:40:32.787Z,11.00
2019-01-26T17:42:59.905Z,10.20
2019-01-26T17:45:27.990Z,10.90
2019-01-26T17:47:55.463Z,10.67
2019-01-26T17:50:24.194Z,11.50
2019-01-26T17:52:51.310Z,11.17
2019-01-26T17:55:18.746Z,11.53
2019-01-26T17:57:46.202Z,10.80
2019-01-26T18:00:22.395Z,11.33
2019-01-26T18:02:52.308Z,12.77
2019-01-26T18:05:19.374Z,11.90
2019-01-26T18:07:49.430Z,12.10
2019-01-26T18:10:18.637Z,9.93
2019-01-26T18:12:45.998Z,10.90
2019-01-26T18:15:14.007Z,9.40
2019-01-26T18:17:41.794Z,10.93
2019-01-26T18:20:12.359Z,11.27
2019-01-26T18:22:40.531Z,10.37
2019-01-26T18:25:07.751Z,10.05
2019-01-26T18:27:34.834Z,9.83
2019-01-26T18:30:02.194Z,9.63
2019-01-26T18:32:29.841Z,10.87
2019-01-26T18:34:56.922Z,10.55
2019-01-26T18:37:25.158Z,9.48
2019-01-26T18:39:52.835Z,9.43
2019-01-26T18:42:20.909Z,9.87
2019-01-26T18:44:48.462Z,8.05
2019-01-26T18:47:16.435Z,9.17
2019-01-26T18:49:44.403Z,8.43
2019-01-26T18:52:11.858Z,11.00
2019-01-26T18:54:39.750Z,9.50
2019-01-26T18:57:07.203Z,9.18
2019-01-26T18:59:35.977Z,7.90
2019-01-26T19:02:03.181Z,8.85
2019-01-26T19:04:44.326Z,8.85
2019-01-26T19:07:11.939Z,8.35
2019-01-26T19:09:39.020Z,9.50
2019-01-26T19:12:06.362Z,7.85
2019-01-26T19:14:34.332Z,8.68
2019-01-26T19:17:01.439Z,8.70
2019-01-26T19:19:30.709Z,9.13
2019-01-26T19:21:57.815Z,8.80
2019-01-26T19:24:25.289Z,8.38
2019-01-26T19:26:52.351Z,8.53
2019-01-26T19:29:19.742Z,8.88
2019-01-26T19:31:47.154Z,8.28
2019-01-26T19:34:14.641Z,8.20
2019-01-26T19:36:42.185Z,8.68
2019-01-26T19:39:09.605Z,7.65
2019-01-26T19:41:38.303Z,8.83
2019-01-26T19:44:07.915Z,8.65
2019-01-26T19:46:36.110Z,8.60
2019-01-26T19:49:03.247Z,9.20
2019-01-26T19:51:30.459Z,9.53
2019-01-26T19:53:58.256Z,9.00
2019-01-26T19:56:25.643Z,10.95
2019-01-26T19:58:54.373Z,12.33
2019-01-26T20:01:21.479Z,11.22
2019-01-26T20:03:48.664Z,11.80
2019-01-26T20:06:15.823Z,10.85
2019-01-26T20:08:43.103Z,9.98
2019-01-26T20:11:10.181Z,10.50
2019-01-26T20:13:39.051Z,11.47
2019-01-26T20:16:06.482Z,12.37
2019-01-26T20:18:35.170Z,11.90
2019-01-26T20:21:02.650Z,11.40
2019-01-26T20:23:31.523Z,10.28
2019-01-26T20:26:00.105Z,11.27
2019-01-26T20:28:27.865Z,11.22
2019-01-26T20:30:54.929Z,11.40
2019-01-26T20:33:22.989Z,10.47
2019-01-26T20:35:50.561Z,11.83
2019-01-26T20:38:18.286Z,11.07
2019-01-26T20:40:45.366Z,11.30
2019-01-26T20:43:14.531Z,12.23
2019-01-26T20:45:41.876Z,13.07
2019-01-26T20:48:09.262Z,13.07
2019-01-26T20:50:36.569Z,10.87
2019-01-26T20:53:06.871Z,11.37
2019-01-26T20:55:35.980Z,11.33
2019-01-26T20:58:03.557Z,11.73
2019-01-26T21:00:31.569Z,18.70
2019-01-26T21:03:00.139Z,15.70
2019-01-26T21:05:27.260Z,13.90
2019-01-26T21:07:56.395Z,14.57
2019-01-26T21:10:26.240Z,15.00
2019-01-26T21:12:53.706Z,14.17
2019-01-26T21:15:20.893Z,15.83
2019-01-26T21:17:48.081Z,19.40
2019-01-26T21:20:16.946Z,14.67
2019-01-26T21:22:50.053Z,14.43
2019-01-26T21:25:17.827Z,12.70
2019-01-26T21:27:46.202Z,14.17
2019-01-26T21:30:17.159Z,13.93
2019-01-26T21:32:44.518Z,13.10
2019-01-26T21:35:11.603Z,14.77
2019-01-26T21:37:38.685Z,12.70
2019-01-26T21:40:11.714Z,13.87
2019-01-26T21:42:40.104Z,13.53
2019-01-26T21:45:09.435Z,12.80
2019-01-26T21:47:36.642Z,13.60
2019-01-26T21:50:06.290Z,13.10
2019-01-26T21:52:33.367Z,13.30
2019-01-26T21:55:00.903Z,12.90
2019-01-26T21:57:27.979Z,12.27
2019-01-26T21:59:55.167Z,14.07
2019-01-26T22:02:25.223Z,14.20
2019-01-26T22:04:52.603Z,13.20
2019-01-26T22:07:19.678Z,13.63
2019-01-26T22:09:47.284Z,14.70
2019-01-26T22:12:15.152Z,15.80
2019-01-26T22:14:42.750Z,14.87
2019-01-26T22:17:09.858Z,15.67
2019-01-26T22:19:37.040Z,16.27
2019-01-26T22:22:04.455Z,16.47
2019-01-26T22:24:32.238Z,19.53
2019-01-26T22:26:59.647Z,18.77
2019-01-26T22:29:31.241Z,19.97
2019-01-26T22:31:56.252Z,18.80
2019-01-26T22:34:24.402Z,19.10
2019-01-26T22:36:51.767Z,19.93
2019-01-26T22:39:18.887Z,19.97
2019-01-26T22:41:46.575Z,19.40
2019-01-26T22:44:13.703Z,20.10
2019-01-26T22:46:41.489Z,19.60
2019-01-26T22:49:08.951Z,20.27
2019-01-26T22:51:37.128Z,19.80
2019-01-26T22:54:04.874Z,19.43
2019-01-26T22:56:32.338Z,20.37
2019-01-26T22:58:59.427Z,22.57
2019-01-26T23:01:31.949Z,22.97
2019-01-26T23:04:36.965Z,23.20
2019-01-26T23:07:35.585Z,24.17
2019-01-26T23:10:48.970Z,25.03
2019-01-26T23:13:43.456Z,27.67
2019-01-26T23:16:51.814Z,27.20
2019-01-26T23:19:26.163Z,28.17
2019-01-26T23:22:27.763Z,29.57
2019-01-26T23:25:24.562Z,28.73
2019-01-26T23:28:12.468Z,27.57
2019-01-26T23:31:19.675Z,30.47
2019-01-26T23:33:51.003Z,30.73
2019-01-26T23:36:18.615Z,28.90
2019-01-26T23:38:46.699Z,29.57
2019-01-26T23:41:13.847Z,30.20
2019-01-26T23:43:41.563Z,28.13
2019-01-26T23:46:09.652Z,29.17
2019-01-26T23:48:41.024Z,31.47
2019-01-26T23:51:08.542Z,28.83
2019-01-26T23:53:36.200Z,30.23
2019-01-26T23:56:03.476Z,30.97
2019-01-26T23:58:31.114Z,29.40
